First easyJet flight in 11 weeks (15th of June, 2020)

The first easyJet flight in 11 weeks is taking to the skies, the airline had grounded a lot of flights due to COVID-19

Aircraft A320 Reg No. G-EZRT Age 2 years old
Model A320 Jet engines 2 First flight 07-05-18
Registered 18-05-18 Rollout N/A Delivered 18-05-18
Construction No. 8162 Line No. N/A Series 214(SL)
ADSHEX 4074B2 Airline name easyJet Owner N/A
Airfield based Luton~Beds~G First tracked N/A

Flight history for G-EZRT

Route Flight No Date Playback
Faro (FAO) - Liverpool (LPL) U27196 2020-08-09 00:51:00
Liverpool (LPL) - Faro (FAO) U27195 2020-08-08 21:38:00
Alicante (ALC) - Liverpool (LPL) U27120 2020-08-08 17:30:00
Liverpool (LPL) - Alicante (ALC) U27119 2020-08-08 14:56:00
Son Sant Joan (PMI) - Liverpool (LPL) U27142 2020-08-08 10:13:00
Liverpool (LPL) - Son Sant Joan (PMI) U27141 2020-08-08 06:33:00
Alicante (ALC) - Liverpool (LPL) U27122 2020-08-08 04:16:00
Liverpool (LPL) - Alicante (ALC) U27121 2020-08-07 21:26:00
Cote D Azur (NCE) - Liverpool (LPL) U27066 2020-08-07 18:21:00
Liverpool (LPL) - Cote D Azur (NCE) U27065 2020-08-07 14:04:00
Belfast International (BFS) - Liverpool (LPL) U2606 2020-08-07 12:03:00
Liverpool (LPL) - Belfast International (BFS) U2605 2020-08-07 10:18:00
Son Sant Joan (PMI) - Liverpool (LPL) U27144 2020-08-06 23:09:00
Liverpool (LPL) - Son Sant Joan (PMI) U27143 2020-08-06 20:52:00
Jersey (JER) - Liverpool (LPL) U27024 2020-08-06 17:37:00
Liverpool (LPL) - Jersey (JER) U27023 2020-08-06 14:42:00
Merignac (BOD) - Liverpool (LPL) U27078 2020-08-06 12:44:00
Liverpool (LPL) - Merignac (BOD) U27077 2020-08-06 11:10:00
Jersey (JER) - Liverpool (LPL) U27024 2020-08-05 14:43:00
Liverpool (LPL) - Jersey (JER) U27023 2020-08-05 13:40:00
Time Lat Lon Altitude Heading Speed Vertical Rate
2020-06-15 07:01:31 GMT 55.875034 -4.423714 0 227 15 0
2020-06-15 07:01:24 GMT 55.875313 -4.423199 0 225 14 0
2020-06-15 06:59:21 GMT 55.869389 -4.438026 0 47 98 0
2020-06-15 06:59:13 GMT 55.866760 -4.442888 -100 46 120 -128
2020-06-15 06:59:03 GMT 55.862965 -4.450064 0 46 123 -704
2020-06-15 06:58:53 GMT 55.858959 -4.457531 100 46 123 -640
2020-06-15 06:58:43 GMT 55.855042 -4.464944 200 46 121 -640
2020-06-15 06:58:34 GMT 55.851791 -4.471006 300 46 123 -768
2020-06-15 06:58:31 GMT 55.850372 -4.473683 350 46 123 -704
2020-06-15 06:58:22 GMT 55.846951 -4.480019 450 46 123 -704
2020-06-15 06:58:13 GMT 55.843231 -4.486916 550 45 122 -640
2020-06-15 06:58:02 GMT 55.839176 -4.494524 650 46 120 -640
2020-06-15 06:57:56 GMT 55.836731 -4.499068 725 46 120 -640
2020-06-15 06:57:52 GMT 55.835449 -4.501481 750 46 120 -640
2020-06-15 06:57:46 GMT 55.832932 -4.506142 825 46 120 -640
2020-06-15 06:57:42 GMT 55.831589 -4.508600 850 46 120 -640
2020-06-15 06:57:36 GMT 55.829121 -4.513235 925 46 120 -640
2020-06-15 06:57:32 GMT 55.827530 -4.516213 975 46 120 -704
2020-06-15 06:57:26 GMT 55.825241 -4.520458 1,050 46 119 -640
2020-06-15 06:57:21 GMT 55.823536 -4.523535 1,100 46 118 -576
2020-06-15 06:57:17 GMT 55.821808 -4.526783 1,125 46 118 -512
2020-06-15 06:57:12 GMT 55.819904 -4.530315 1,175 46 119 -576
2020-06-15 06:57:07 GMT 55.817993 -4.533920 1,250 46 120 -640
2020-06-15 06:57:01 GMT 55.815994 -4.537603 1,275 46 123 -640
2020-06-15 06:56:57 GMT 55.814083 -4.541130 1,375 46 128 -768
2020-06-15 06:56:51 GMT 55.812038 -4.544992 1,400 46 130 -768
2020-06-15 06:56:47 GMT 55.810036 -4.548769 1,500 46 137 -768
2020-06-15 06:56:42 GMT 55.807892 -4.552751 1,525 46 140 -768
2020-06-15 06:56:35 GMT 55.804825 -4.558494 1,600 46 149 -576
2020-06-15 06:56:32 GMT 55.803005 -4.561901 1,650 46 152 -768
2020-06-15 06:56:25 GMT 55.799515 -4.568481 1,750 46 158 -1024
2020-06-15 06:56:21 GMT 55.798210 -4.570827 1,800 46 159 -1024
2020-06-15 06:56:17 GMT 55.795837 -4.575291 2,000 44 171 -768
2020-06-15 06:56:11 GMT 55.792950 -4.580612 1,975 45 165 -768
2020-06-15 06:56:05 GMT 55.789169 -4.587375 2,050 44 172 -896
2020-06-15 06:56:01 GMT 55.787502 -4.590311 2,100 44 176 -832
2020-06-15 06:55:57 GMT 55.784592 -4.595281 2,150 43 180 -1024
2020-06-15 06:55:54 GMT 55.783455 -4.597263 2,175 42 180 -1024
2020-06-15 06:55:51 GMT 55.781639 -4.600353 2,250 42 180 -1024
2020-06-15 06:55:44 GMT 55.776566 -4.608421 2,375 40 180 -960
2020-06-15 06:55:41 GMT 55.775070 -4.610679 2,425 39 179 -1088
2020-06-15 06:55:34 GMT 55.771042 -4.616588 2,600 33 179 -832
2020-06-15 06:55:31 GMT 55.768791 -4.619665 2,575 34 179 -896
2020-06-15 06:55:24 GMT 55.764320 -4.624901 2,725 20 180 -576
2020-06-15 06:55:21 GMT 55.761658 -4.627242 2,700 20 180 -576
2020-06-15 06:55:14 GMT 55.755428 -4.630737 2,800 16 181 -768
2020-06-15 06:55:11 GMT 55.753464 -4.631736 2,825 15 182 -640
2020-06-15 06:55:04 GMT 55.748062 -4.634483 2,875 15 183 -384
2020-06-15 06:55:00 GMT 55.745235 -4.635887 2,900 15 185 -192
2020-06-15 06:54:55 GMT 55.740051 -4.638478 2,900 15 187 0
2020-06-15 06:54:50 GMT 55.737076 -4.639893 2,900 14 189 0
2020-06-15 06:54:44 GMT 55.731640 -4.642410 2,900 13 194 -64
2020-06-15 06:54:40 GMT 55.728195 -4.643888 2,925 10 199 -128
2020-06-15 06:54:34 GMT 55.722931 -4.645469 3,000 341 212 -832
2020-06-15 06:54:31 GMT 55.718979 -4.645586 2,950 353 208 -512
2020-06-15 06:54:23 GMT 55.712219 -4.643055 3,050 337 212 -960
2020-06-15 06:54:14 GMT 55.703979 -4.634566 3,250 315 215 -1600
2020-06-15 06:54:09 GMT 55.700638 -4.628657 3,375 312 219 -1472
2020-06-15 06:54:04 GMT 55.697250 -4.621915 3,500 312 218 -1472
2020-06-15 06:53:59 GMT 55.694073 -4.615545 3,600 312 222 -1152
2020-06-15 06:53:53 GMT 55.689278 -4.606018 3,725 312 229 -640
2020-06-15 06:53:49 GMT 55.687092 -4.601641 3,775 312 227 -704
2020-06-15 06:53:43 GMT 55.683334 -4.594199 3,825 312 230 -576
2020-06-15 06:53:39 GMT 55.679970 -4.587564 3,875 312 233 -576
2020-06-15 06:53:36 GMT 55.677521 -4.582631 3,900 312 235 -576
2020-06-15 06:53:32 GMT 55.675461 -4.578469 3,925 312 235 -640
2020-06-15 06:53:28 GMT 55.672806 -4.573142 3,975 312 237 -704
2020-06-15 06:53:25 GMT 55.670143 -4.567823 4,000 312 239 -896
2020-06-15 06:53:22 GMT 55.668045 -4.563654 4,050 312 239 -1152
2020-06-15 06:53:18 GMT 55.665443 -4.558468 4,125 312 239 -1408
2020-06-15 06:53:15 GMT 55.662872 -4.553167 4,225 312 239 -1408
2020-06-15 06:53:12 GMT 55.660675 -4.548756 4,275 312 239 -1472
2020-06-15 06:53:08 GMT 55.657856 -4.543104 4,375 312 240 -1408
2020-06-15 06:53:03 GMT 55.654266 -4.535855 4,500 312 239 -1408
2020-06-15 06:52:58 GMT 55.650455 -4.528341 4,575 312 239 -1344
2020-06-15 06:52:55 GMT 55.648220 -4.523964 4,675 313 240 -1024
2020-06-15 06:52:52 GMT 55.646072 -4.519626 4,725 313 240 -896
2020-06-15 06:52:48 GMT 55.642914 -4.513493 4,775 313 241 -704
2020-06-15 06:52:45 GMT 55.640671 -4.509139 4,825 313 241 -832
2020-06-15 06:52:41 GMT 55.637745 -4.503365 4,875 313 240 -576
2020-06-15 06:52:38 GMT 55.635452 -4.498985 4,900 313 240 -384
2020-06-15 06:52:35 GMT 55.633163 -4.494490 4,925 313 241 -128
2020-06-15 06:52:32 GMT 55.630249 -4.488859 4,925 313 241 -128
2020-06-15 06:52:28 GMT 55.627735 -4.483881 4,925 313 243 -256
2020-06-15 06:52:23 GMT 55.624374 -4.477345 4,975 312 245 -576
2020-06-15 06:52:20 GMT 55.621822 -4.472294 5,000 312 247 -768
2020-06-15 06:52:17 GMT 55.620026 -4.468772 5,025 312 247 -960
2020-06-15 06:52:13 GMT 55.616592 -4.461947 5,075 312 250 -960
2020-06-15 06:52:10 GMT 55.614258 -4.457286 5,150 312 255 -960
2020-06-15 06:52:07 GMT 55.612282 -4.453325 5,175 312 252 -960
2020-06-15 06:52:02 GMT 55.608559 -4.445944 5,275 312 255 -960
2020-06-15 06:51:59 GMT 55.605762 -4.440279 5,325 312 256 -960
2020-06-15 06:51:56 GMT 55.603436 -4.435558 5,375 312 258 -1024
2020-06-15 06:51:52 GMT 55.600830 -4.430408 5,425 312 260 -1024
2020-06-15 06:51:49 GMT 55.598007 -4.424744 5,550 312 262 -1024
2020-06-15 06:51:46 GMT 55.595989 -4.420624 5,525 312 262 -1024
2020-06-15 06:51:42 GMT 55.592869 -4.414358 5,600 312 262 -1024
2020-06-15 06:51:39 GMT 55.589996 -4.408680 5,675 312 264 -960
2020-06-15 06:51:36 GMT 55.586910 -4.402514 5,725 312 264 -960
2020-06-15 06:51:33 GMT 55.584538 -4.397879 5,775 313 264 -960
2020-06-15 06:51:30 GMT 55.582626 -4.394115 5,800 314 263 -960
2020-06-15 06:51:26 GMT 55.579742 -4.388609 5,850 315 264 -896
2020-06-15 06:51:23 GMT 55.576263 -4.382213 5,925 316 264 -896
2020-06-15 06:51:20 GMT 55.570057 -4.371529 5,975 317 265 -768
2020-06-15 06:51:17 GMT 55.570057 -4.371529 6,025 317 265 -896
2020-06-15 06:51:13 GMT 55.568253 -4.368480 6,050 317 266 -960
2020-06-15 06:51:10 GMT 55.565231 -4.363403 6,100 317 266 -960
2020-06-15 06:51:07 GMT 55.562485 -4.358742 6,150 317 267 -960
2020-06-15 06:51:03 GMT 55.559006 -4.352833 6,175 317 267 -960
2020-06-15 06:51:00 GMT 55.556374 -4.348440 6,250 317 268 -896
2020-06-15 06:50:56 GMT 55.553284 -4.343178 6,300 317 268 -896
2020-06-15 06:50:53 GMT 55.550125 -4.337935 6,375 317 270 -896
2020-06-15 06:50:50 GMT 55.547699 -4.333857 6,425 317 270 -896
2020-06-15 06:50:47 GMT 55.544594 -4.328613 6,475 317 270 -960
2020-06-15 06:50:43 GMT 55.540833 -4.322288 6,525 317 271 -960
2020-06-15 06:50:40 GMT 55.538494 -4.318399 6,575 317 273 -960
2020-06-15 06:50:37 GMT 55.535385 -4.313049 6,625 317 275 -960
2020-06-15 06:50:33 GMT 55.531372 -4.306383 6,675 317 275 -896
2020-06-15 06:50:30 GMT 55.529388 -4.303062 6,725 317 276 -896
2020-06-15 06:50:27 GMT 55.526485 -4.298143 6,750 317 277 -896
2020-06-15 06:50:24 GMT 55.523365 -4.292822 6,825 317 279 -896
2020-06-15 06:50:21 GMT 55.521133 -4.289045 6,850 317 279 -896
2020-06-15 06:50:18 GMT 55.518387 -4.284496 6,900 317 280 -896
2020-06-15 06:50:15 GMT 55.515591 -4.279776 6,975 317 283 -896
2020-06-15 06:50:12 GMT 55.511543 -4.272909 6,975 317 283 -896
2020-06-15 06:50:09 GMT 55.506821 -4.265026 7,075 317 287 -832
2020-06-15 06:50:06 GMT 55.506821 -4.265026 7,100 317 288 -768
2020-06-15 06:50:03 GMT 55.504372 -4.260893 7,100 317 289 -960
2020-06-15 06:50:00 GMT 55.500973 -4.255228 7,200 317 290 -1216
2020-06-15 06:49:57 GMT 55.498180 -4.250507 7,275 317 292 -1536
2020-06-15 06:49:54 GMT 55.494366 -4.244156 7,275 317 292 -1536
2020-06-15 06:49:51 GMT 55.492317 -4.240723 7,375 317 292 -1536
2020-06-15 06:49:48 GMT 55.488419 -4.234314 7,475 317 293 -1600
2020-06-15 06:49:43 GMT 55.483658 -4.226303 7,625 317 293 -1600
2020-06-15 06:49:39 GMT 55.480633 -4.221239 7,800 317 294 -1664
2020-06-15 06:49:36 GMT 55.477798 -4.216503 7,775 317 294 -1728
2020-06-15 06:49:33 GMT 55.475143 -4.212092 7,850 317 294 -1792
2020-06-15 06:49:30 GMT 55.472343 -4.207335 7,950 317 294 -1792
2020-06-15 06:49:27 GMT 55.463314 -4.192142 8,150 317 294 -1664
2020-06-15 06:49:22 GMT 55.463314 -4.192142 8,225 317 295 -1536
2020-06-15 06:49:18 GMT 55.459450 -4.185705 8,225 317 295 -1536
2020-06-15 06:49:12 GMT 55.453724 -4.176006 8,400 317 297 -1344
2020-06-15 06:49:09 GMT 55.450745 -4.171028 8,500 317 298 -1472
2020-06-15 06:49:06 GMT 55.448318 -4.166898 8,600 317 299 -1536
2020-06-15 06:49:02 GMT 55.443924 -4.159574 8,725 317 299 -1600
2020-06-15 06:48:59 GMT 55.440735 -4.154330 8,775 317 299 -1664
2020-06-15 06:48:55 GMT 55.435364 -4.145319 8,900 317 300 -1536
2020-06-15 06:48:51 GMT 55.432404 -4.140348 9,000 317 301 -1536
2020-06-15 06:48:48 GMT 55.430401 -4.137018 9,025 317 301 -1536
2020-06-15 06:48:45 GMT 55.426865 -4.131109 9,125 317 302 -1536
2020-06-15 06:48:41 GMT 55.422626 -4.123951 9,200 317 303 -1472
2020-06-15 06:48:38 GMT 55.419113 -4.118096 9,300 317 304 -1472
2020-06-15 06:48:35 GMT 55.416435 -4.113631 9,375 317 304 -1536
2020-06-15 06:48:31 GMT 55.412933 -4.107756 9,425 317 304 -1600
2020-06-15 06:48:28 GMT 55.409687 -4.102395 9,550 317 304 -1728
2020-06-15 06:48:25 GMT 55.406296 -4.096769 9,650 317 305 -1664
2020-06-15 06:48:22 GMT 55.403168 -4.091575 9,775 317 305 -1536
2020-06-15 06:48:19 GMT 55.400436 -4.087076 9,800 317 306 -1472
2020-06-15 06:48:16 GMT 55.397533 -4.082170 9,875 317 307 -1408
2020-06-15 06:48:13 GMT 55.393532 -4.075512 9,975 317 309 -1216
2020-06-15 06:48:10 GMT 55.390457 -4.070435 9,975 317 309 -1216
2020-06-15 06:48:07 GMT 55.387295 -4.065108 10,125 317 312 -960
2020-06-15 06:48:02 GMT 55.382492 -4.057025 10,150 317 314 -832
2020-06-15 06:47:58 GMT 55.378281 -4.050078 10,225 317 318 -704
2020-06-15 06:47:52 GMT 55.372284 -4.040061 10,275 317 321 -768
2020-06-15 06:47:49 GMT 55.369171 -4.034891 10,300 317 322 -960
2020-06-15 06:47:46 GMT 55.366112 -4.029735 10,375 317 323 -1344
2020-06-15 06:47:43 GMT 55.362717 -4.024066 10,500 317 323 -1600
2020-06-15 06:47:40 GMT 55.358917 -4.017765 10,550 317 324 -1792
2020-06-15 06:47:37 GMT 55.356476 -4.013672 10,675 317 324 -1920
2020-06-15 06:47:34 GMT 55.352509 -4.007021 10,750 317 324 -2048
2020-06-15 06:47:31 GMT 55.349819 -4.002602 10,900 317 323 -2176
2020-06-15 06:47:28 GMT 55.345490 -3.995361 10,975 317 323 -2176
2020-06-15 06:47:25 GMT 55.343208 -3.991533 11,050 317 323 -2176
2020-06-15 06:47:21 GMT 55.338501 -3.983675 11,275 317 323 -2112
2020-06-15 06:47:16 GMT 55.332870 -3.974304 11,375 317 323 -1664
2020-06-15 06:47:13 GMT 55.329666 -3.968892 11,500 317 323 -2048
2020-06-15 06:47:10 GMT 55.326591 -3.963734 11,600 317 324 -1536
2020-06-15 06:47:06 GMT 55.322029 -3.956160 11,650 317 326 -1088
2020-06-15 06:47:02 GMT 55.315384 -3.945061 11,825 317 331 -1408
2020-06-15 06:46:59 GMT 55.315384 -3.945061 11,775 317 330 -1088
2020-06-15 06:46:56 GMT 55.311043 -3.937766 11,825 317 331 -1408
2020-06-15 06:46:53 GMT 55.307594 -3.932107 11,925 317 332 -1792
2020-06-15 06:46:50 GMT 55.305363 -3.928361 12,000 317 331 -2304
2020-06-15 06:46:47 GMT 55.300987 -3.921204 12,125 317 333 -1920
2020-06-15 06:46:41 GMT 55.294373 -3.910163 12,275 317 335 -1344
2020-06-15 06:46:38 GMT 55.292130 -3.906367 12,400 317 341 -512
2020-06-15 06:46:35 GMT 55.288555 -3.900479 12,375 317 343 -512
2020-06-15 06:46:32 GMT 55.284622 -3.894007 12,375 317 343 -512
2020-06-15 06:46:29 GMT 55.276825 -3.881087 12,750 317 345 -1024
2020-06-15 06:46:26 GMT 55.276825 -3.881087 12,475 317 347 -1152
2020-06-15 06:46:22 GMT 55.272728 -3.874345 12,550 317 350 -1024
2020-06-15 06:46:18 GMT 55.268646 -3.867591 12,625 317 353 -1216
2020-06-15 06:46:14 GMT 55.263977 -3.859863 12,700 317 355 -1152
2020-06-15 06:46:11 GMT 55.260223 -3.853697 12,775 317 356 -1664
2020-06-15 06:46:08 GMT 55.256809 -3.848045 13,000 317 377 -1408
2020-06-15 06:46:05 GMT 55.251572 -3.839399 13,000 317 358 -2112
2020-06-15 06:46:01 GMT 55.247360 -3.832532 13,075 317 358 -2112
2020-06-15 06:45:57 GMT 55.243469 -3.826150 13,250 317 359 -2112
2020-06-15 06:45:54 GMT 55.239258 -3.819122 13,375 317 359 -2304
2020-06-15 06:45:51 GMT 55.236324 -3.814253 13,475 317 359 -2432
2020-06-15 06:45:48 GMT 55.232555 -3.808094 13,625 317 359 -2432
2020-06-15 06:45:45 GMT 55.228828 -3.801852 13,700 317 360 -2176
2020-06-15 06:45:42 GMT 55.224594 -3.794861 13,850 317 362 -1664
2020-06-15 06:45:39 GMT 55.221195 -3.789284 13,900 317 363 -1408
2020-06-15 06:45:36 GMT 55.216820 -3.782043 13,975 317 364 -1536
2020-06-15 06:45:32 GMT 55.212025 -3.774137 14,100 317 365 -1856
2020-06-15 06:45:28 GMT 55.207901 -3.767341 14,200 317 367 -1920
2020-06-15 06:45:25 GMT 55.204018 -3.760986 14,325 317 368 -1984
2020-06-15 06:45:22 GMT 55.199890 -3.754174 14,400 317 368 -1920
2020-06-15 06:45:19 GMT 55.196102 -3.747919 14,500 317 370 -1600
2020-06-15 06:45:15 GMT 55.192337 -3.741653 14,575 317 372 -1216
2020-06-15 06:45:12 GMT 55.187576 -3.733897 14,650 317 375 -1216
2020-06-15 06:45:09 GMT 55.183815 -3.727778 14,725 317 377 -1472
2020-06-15 06:45:04 GMT 55.178368 -3.718789 14,850 317 378 -1856
2020-06-15 06:45:01 GMT 55.173946 -3.711465 14,950 317 379 -1984
2020-06-15 06:44:58 GMT 55.169987 -3.704973 15,050 317 379 -1984
2020-06-15 06:44:55 GMT 55.165333 -3.697399 15,175 317 381 -1984
2020-06-15 06:44:51 GMT 55.160866 -3.690075 15,250 317 382 -2048
2020-06-15 06:44:47 GMT 55.155762 -3.681793 15,400 317 383 -1984
2020-06-15 06:44:43 GMT 55.150497 -3.673150 15,575 317 387 -1856
2020-06-15 06:44:40 GMT 55.147888 -3.668868 15,650 317 386 -1728
2020-06-15 06:44:37 GMT 55.139053 -3.654408 15,775 317 387 -1984
2020-06-15 06:44:34 GMT 55.139053 -3.654408 15,825 317 388 -1984
2020-06-15 06:44:30 GMT 55.133698 -3.645684 15,975 317 390 -1792
2020-06-15 06:44:27 GMT 55.129623 -3.638979 16,175 317 391 -1664
2020-06-15 06:44:24 GMT 55.121155 -3.625165 16,175 317 394 -1280
2020-06-15 06:44:21 GMT 55.121155 -3.625165 16,225 317 397 -1024
2020-06-15 06:44:17 GMT 55.117401 -3.619107 16,375 317 403 -1088
2020-06-15 06:44:14 GMT 55.112732 -3.611432 16,300 317 401 -960
2020-06-15 06:44:11 GMT 55.108727 -3.604931 16,350 317 403 -1024
2020-06-15 06:44:08 GMT 55.104908 -3.598688 16,400 317 405 -1280
2020-06-15 06:44:04 GMT 55.097832 -3.587119 16,550 317 407 -2048
2020-06-15 06:44:00 GMT 55.093689 -3.580378 16,675 317 408 -2368
2020-06-15 06:43:57 GMT 55.089111 -3.572819 16,775 317 408 -2560
2020-06-15 06:43:54 GMT 55.085030 -3.566229 16,925 317 408 -2624
2020-06-15 06:43:51 GMT 55.080826 -3.559409 17,075 317 408 -2624
2020-06-15 06:43:48 GMT 55.076935 -3.553108 17,200 317 409 -2688
2020-06-15 06:43:44 GMT 55.071625 -3.544422 17,300 317 410 -2624
2020-06-15 06:43:41 GMT 55.067413 -3.537517 17,550 318 411 -2624
2020-06-15 06:43:38 GMT 55.063198 -3.530690 17,625 318 411 -2624
2020-06-15 06:43:34 GMT 55.058170 -3.522533 17,825 318 412 -2560
2020-06-15 06:43:31 GMT 55.053745 -3.515375 17,950 318 412 -2496
2020-06-15 06:43:28 GMT 55.048721 -3.507219 18,075 318 413 -2432
2020-06-15 06:43:24 GMT 55.043198 -3.498257 18,825 318 413 -2560
2020-06-15 06:43:21 GMT 55.039177 -3.491821 18,350 318 415 -2560
2020-06-15 06:43:18 GMT 55.034912 -3.484847 18,525 318 416 -2560
2020-06-15 06:43:15 GMT 55.030563 -3.477819 18,525 318 416 -2560
2020-06-15 06:43:12 GMT 55.026489 -3.471195 18,775 318 417 -2496
2020-06-15 06:43:09 GMT 55.022232 -3.464329 18,950 318 418 -2560
2020-06-15 06:43:06 GMT 55.018227 -3.457864 19,025 318 418 -2560
2020-06-15 06:43:03 GMT 55.012619 -3.448818 19,150 318 419 -2624
2020-06-15 06:43:00 GMT 55.009232 -3.443325 19,250 318 420 -2624
2020-06-15 06:42:57 GMT 55.004311 -3.435392 19,425 318 420 -2752
2020-06-15 06:42:51 GMT 54.997147 -3.423776 19,675 318 420 -3008
2020-06-15 06:42:48 GMT 54.988525 -3.409840 19,875 318 420 -2944
2020-06-15 06:42:45 GMT 54.988525 -3.409840 19,975 318 422 -2624
2020-06-15 06:42:42 GMT 54.982910 -3.400672 20,100 318 422 -2752
2020-06-15 06:42:39 GMT 54.980007 -3.395941 20,225 318 423 -2432
2020-06-15 06:42:36 GMT 54.975586 -3.388783 20,375 317 426 -1920
2020-06-15 06:42:33 GMT 54.971256 -3.381792 20,675 318 428 -1856
2020-06-15 06:42:30 GMT 54.967812 -3.376215 20,500 317 429 -1856
2020-06-15 06:42:27 GMT 54.962952 -3.368360 20,625 317 430 -1984
2020-06-15 06:42:24 GMT 54.958500 -3.361151 20,725 317 433 -2048
2020-06-15 06:42:21 GMT 54.952423 -3.351315 20,850 318 435 -2048
2020-06-15 06:42:18 GMT 54.949562 -3.346669 20,975 318 437 -2048
2020-06-15 06:42:15 GMT 54.940578 -3.332103 21,050 318 439 -1920
2020-06-15 06:42:09 GMT 54.935898 -3.324495 21,375 318 444 -2496
2020-06-15 06:42:06 GMT 54.931454 -3.317455 21,475 318 442 -2176
2020-06-15 06:42:03 GMT 54.926987 -3.310214 21,550 318 444 -2752
2020-06-15 06:42:00 GMT 54.922531 -3.303007 21,600 318 444 -2816
2020-06-15 06:41:56 GMT 54.917130 -3.294283 21,700 318 445 -3008
2020-06-15 06:41:53 GMT 54.911160 -3.284746 22,000 318 445 -3008
2020-06-15 06:41:50 GMT 54.908066 -3.279742 22,075 318 445 -3008
2020-06-15 06:41:47 GMT 54.903076 -3.271745 22,375 318 447 -2944
2020-06-15 06:41:44 GMT 54.898636 -3.264604 22,475 318 447 -2880
2020-06-15 06:41:41 GMT 54.893555 -3.256396 22,575 318 448 -2816
2020-06-15 06:41:38 GMT 54.889233 -3.249456 22,675 318 448 -2752
2020-06-15 06:41:35 GMT 54.884529 -3.241882 23,000 318 450 -2752
2020-06-15 06:41:32 GMT 54.880711 -3.235807 22,850 318 450 -2752
2020-06-15 06:41:29 GMT 54.876846 -3.229496 23,050 318 451 -2688
2020-06-15 06:41:26 GMT 54.871490 -3.220933 23,225 318 453 -2688
2020-06-15 06:41:23 GMT 54.867188 -3.214066 23,375 318 454 -2752
2020-06-15 06:41:20 GMT 54.861649 -3.205180 23,500 318 455 -2880
2020-06-15 06:41:17 GMT 54.857025 -3.197749 23,575 318 455 -3008
2020-06-15 06:41:14 GMT 54.852779 -3.190946 23,825 318 455 -3136
2020-06-15 06:41:11 GMT 54.846451 -3.180875 23,975 318 455 -3264
2020-06-15 06:41:08 GMT 54.838863 -3.168723 24,275 318 457 -3200
2020-06-15 06:41:05 GMT 54.838863 -3.168723 24,375 318 457 -3072
2020-06-15 06:41:02 GMT 54.834000 -3.160912 24,425 318 457 -3008
2020-06-15 06:40:59 GMT 54.830246 -3.154934 24,550 318 458 -2880
2020-06-15 06:40:56 GMT 54.824982 -3.146533 24,700 318 460 -2560
2020-06-15 06:40:53 GMT 54.820450 -3.139262 24,850 318 463 -2304
2020-06-15 06:40:50 GMT 54.815918 -3.132073 24,900 318 462 -2240
2020-06-15 06:40:47 GMT 54.809860 -3.122364 25,050 318 464 -2496
2020-06-15 06:40:44 GMT 54.806557 -3.117121 25,250 318 464 -3008
2020-06-15 06:40:41 GMT 54.801479 -3.109048 25,350 318 464 -3072
2020-06-15 06:40:38 GMT 54.795273 -3.099114 25,550 318 466 -3008
2020-06-15 06:40:35 GMT 54.787468 -3.086576 27,350 318 478 -3392
2020-06-15 06:40:32 GMT 54.787468 -3.086576 25,850 318 467 -2816
2020-06-15 06:40:29 GMT 54.780899 -3.076010 26,025 318 468 -2752
2020-06-15 06:40:25 GMT 54.774807 -3.066184 26,175 317 474 -2240
2020-06-15 06:40:22 GMT 54.770920 -3.059935 26,225 318 472 -2176
2020-06-15 06:40:19 GMT 54.766987 -3.053617 26,300 317 474 -2304
2020-06-15 06:40:16 GMT 54.760529 -3.043213 26,475 317 476 -2368
2020-06-15 06:40:12 GMT 54.754623 -3.033600 26,625 317 477 -2496
2020-06-15 06:40:09 GMT 54.750732 -3.027380 26,725 317 477 -2560
2020-06-15 06:40:06 GMT 54.740753 -3.011223 27,000 317 478 -3008
2020-06-15 06:40:03 GMT 54.740753 -3.011223 27,125 317 478 -3200
2020-06-15 06:40:00 GMT 54.735981 -3.003512 27,225 317 478 -3328
2020-06-15 06:39:57 GMT 54.730953 -2.995439 27,350 318 479 -3584
2020-06-15 06:39:54 GMT 54.726334 -2.988039 27,650 319 477 -3776
2020-06-15 06:39:51 GMT 54.721413 -2.980208 27,725 319 477 -3776
2020-06-15 06:39:48 GMT 54.716217 -2.972206 27,900 321 475 -3072
2020-06-15 06:39:45 GMT 54.711449 -2.965227 28,150 323 477 -2752
2020-06-15 06:39:42 GMT 54.706329 -2.958230 28,225 324 477 -2560
2020-06-15 06:39:39 GMT 54.701248 -2.951606 28,350 326 477 -2816
2020-06-15 06:39:36 GMT 54.695847 -2.945063 28,525 329 474 -3520
2020-06-15 06:39:33 GMT 54.689804 -2.938197 28,650 329 473 -3776
2020-06-15 06:39:30 GMT 54.684357 -2.932542 28,775 330 473 -3776
2020-06-15 06:39:27 GMT 54.678581 -2.926941 29,100 332 472 -2368
2020-06-15 06:39:24 GMT 54.670853 -2.919697 29,175 332 472 -2368
2020-06-15 06:39:21 GMT 54.667007 -2.916143 29,300 333 473 -2368
2020-06-15 06:39:18 GMT 54.659454 -2.909277 29,425 333 474 -2368
2020-06-15 06:39:15 GMT 54.655910 -2.905967 29,500 332 474 -2368
2020-06-15 06:39:12 GMT 54.649796 -2.900391 29,575 333 475 -2368
2020-06-15 06:39:09 GMT 54.643982 -2.895140 29,725 333 476 -2368
2020-06-15 06:39:06 GMT 54.638580 -2.890131 29,800 333 476 -2368
2020-06-15 06:39:03 GMT 54.630680 -2.882912 30,050 333 477 -2432
2020-06-15 06:39:00 GMT 54.624676 -2.877419 30,125 333 478 -2432
2020-06-15 06:38:57 GMT 54.621136 -2.874256 30,175 333 478 -2432
2020-06-15 06:38:54 GMT 54.614899 -2.868514 30,300 333 479 -2432
2020-06-15 06:38:51 GMT 54.607544 -2.861858 30,400 333 480 -2368
2020-06-15 06:38:48 GMT 54.602692 -2.857415 30,525 333 480 -2368
2020-06-15 06:38:45 GMT 54.597862 -2.852950 30,750 333 481 -2368
2020-06-15 06:38:42 GMT 54.591206 -2.846874 30,825 333 483 -2304
2020-06-15 06:38:39 GMT 54.586456 -2.842629 30,950 333 484 -2304
2020-06-15 06:38:36 GMT 54.579437 -2.836250 31,050 333 484 -2368
2020-06-15 06:38:33 GMT 54.573120 -2.830514 31,150 333 485 -2496
2020-06-15 06:38:30 GMT 54.568069 -2.825900 31,225 333 485 -2624
2020-06-15 06:38:27 GMT 54.562344 -2.820657 33,675 333 476 -3200
2020-06-15 06:38:24 GMT 54.556618 -2.815496 33,175 333 479 -3328
2020-06-15 06:38:21 GMT 54.549362 -2.808946 31,725 333 484 -3328
2020-06-15 06:38:18 GMT 54.544559 -2.804510 32,025 333 482 -3328
2020-06-15 06:38:15 GMT 54.538696 -2.799252 32,075 333 482 -3328
2020-06-15 06:38:12 GMT 54.531006 -2.792224 32,275 333 482 -3200
2020-06-15 06:38:09 GMT 54.525101 -2.786892 32,400 333 482 -3264
2020-06-15 06:38:06 GMT 54.519096 -2.781455 32,625 333 479 -3328
2020-06-15 06:38:03 GMT 54.513107 -2.776067 32,825 333 480 -3328
2020-06-15 06:38:00 GMT 54.508987 -2.772271 32,950 333 479 -3328
2020-06-15 06:37:57 GMT 54.502304 -2.766293 33,050 333 479 -3328
2020-06-15 06:37:54 GMT 54.496811 -2.761365 33,300 333 479 -3328
2020-06-15 06:37:51 GMT 54.489212 -2.754418 33,400 333 478 -3328
2020-06-15 06:37:48 GMT 54.485020 -2.750660 33,525 333 478 -3264
2020-06-15 06:37:45 GMT 54.477615 -2.743919 33,725 333 477 -3200
2020-06-15 06:37:42 GMT 54.473705 -2.740423 34,100 333 475 -3200
2020-06-15 06:37:39 GMT 54.467560 -2.734869 34,150 333 475 -3136
2020-06-15 06:37:36 GMT 54.462067 -2.729853 34,250 333 475 -3136
2020-06-15 06:37:33 GMT 54.456345 -2.724609 34,350 333 475 -3136
2020-06-15 06:37:30 GMT 54.448746 -2.717824 34,550 333 473 -3264
2020-06-15 06:37:27 GMT 54.444717 -2.714108 36,650 333 470 -896
2020-06-15 06:37:24 GMT 54.438419 -2.708463 34,775 333 473 -3008
2020-06-15 06:37:21 GMT 54.433022 -2.703635 34,975 333 472 -2816
2020-06-15 06:37:18 GMT 54.427094 -2.698355 35,200 333 472 -2624
2020-06-15 06:37:15 GMT 54.419102 -2.691151 35,225 333 472 -2432
2020-06-15 06:37:12 GMT 54.413177 -2.685915 35,400 333 476 -960
2020-06-15 06:37:09 GMT 54.409698 -2.682845 35,450 333 473 -2112
2020-06-15 06:37:06 GMT 54.401962 -2.675898 35,525 333 473 -1856
2020-06-15 06:37:03 GMT 54.397964 -2.672424 35,700 333 473 -1600
2020-06-15 06:37:00 GMT 54.390701 -2.665962 35,750 333 473 -1472
2020-06-15 06:36:57 GMT 54.384888 -2.660792 35,850 333 473 -1216
2020-06-15 06:36:54 GMT 54.378601 -2.655196 35,900 333 475 -960
2020-06-15 06:36:51 GMT 54.374817 -2.651825 35,925 333 474 -960
2020-06-15 06:36:48 GMT 54.369186 -2.646816 35,975 333 475 -960
2020-06-15 06:36:45 GMT 54.363373 -2.641566 36,250 333 476 -960
2020-06-15 06:36:42 GMT 54.355835 -2.634888 36,075 333 476 -960
2020-06-15 06:36:39 GMT 54.351837 -2.631306 36,225 333 477 -960
2020-06-15 06:36:36 GMT 54.345428 -2.625571 36,175 333 478 -960
2020-06-15 06:36:33 GMT 54.338657 -2.619573 36,200 333 478 -960
2020-06-15 06:36:30 GMT 54.332047 -2.613664 36,275 333 478 -896
2020-06-15 06:36:27 GMT 54.326843 -2.609011 36,300 333 478 -896
2020-06-15 06:36:24 GMT 54.316963 -2.600181 36,400 333 478 -960
2020-06-15 06:36:21 GMT 54.311005 -2.594793 36,450 333 478 -960
2020-06-15 06:36:18 GMT 54.311005 -2.594793 36,475 333 478 -960
2020-06-15 06:36:15 GMT 54.303360 -2.588007 36,525 333 478 -960
2020-06-15 06:36:12 GMT 54.297318 -2.582595 36,550 333 477 -960
2020-06-15 06:36:09 GMT 54.291641 -2.577506 36,575 333 477 -896
2020-06-15 06:36:06 GMT 54.285782 -2.572255 36,650 333 477 -960
2020-06-15 06:36:03 GMT 54.280151 -2.567166 36,675 333 476 -960
2020-06-15 06:36:00 GMT 54.274181 -2.561834 36,700 333 476 -960
2020-06-15 06:35:56 GMT 54.266144 -2.554635 36,825 333 475 -960
2020-06-15 06:35:53 GMT 54.260284 -2.549377 36,875 333 474 -960
2020-06-15 06:35:50 GMT 54.254585 -2.544224 36,900 333 474 -960
2020-06-15 06:35:47 GMT 54.248291 -2.538627 36,950 333 473 -896
2020-06-15 06:35:43 GMT 54.240738 -2.531878 37,000 333 471 -960
2020-06-15 06:35:40 GMT 54.236614 -2.528148 37,050 333 471 -896
2020-06-15 06:35:37 GMT 54.231403 -2.523543 37,100 333 469 -896
2020-06-15 06:35:34 GMT 54.223347 -2.516354 37,150 333 468 -832
2020-06-15 06:35:31 GMT 54.219299 -2.512719 37,175 333 468 -832
2020-06-15 06:35:28 GMT 54.212780 -2.506983 37,250 333 466 -896
2020-06-15 06:35:25 GMT 54.206589 -2.501430 37,275 333 466 -896
2020-06-15 06:35:22 GMT 54.202679 -2.497936 37,350 333 466 -960
2020-06-15 06:35:19 GMT 54.194626 -2.490746 37,975 333 467 -64
2020-06-15 06:35:16 GMT 54.190567 -2.487148 37,425 333 466 -960
2020-06-15 06:35:13 GMT 54.183334 -2.480634 37,500 333 465 -1024
2020-06-15 06:35:10 GMT 54.179401 -2.477175 37,525 333 465 -1024
2020-06-15 06:35:07 GMT 54.173538 -2.471924 37,550 333 466 -1024
2020-06-15 06:35:04 GMT 54.167625 -2.466592 37,625 333 465 -1024
2020-06-15 06:35:01 GMT 54.161453 -2.461094 37,650 333 465 -1024
2020-06-15 06:34:58 GMT 54.155731 -2.456072 37,675 333 465 -1024
2020-06-15 06:34:55 GMT 54.149143 -2.450194 37,800 333 466 -1024
2020-06-15 06:34:52 GMT 54.143604 -2.445347 37,800 333 466 -960
2020-06-15 06:34:49 GMT 54.133877 -2.436703 37,875 333 466 -832
2020-06-15 06:34:46 GMT 54.126427 -2.430079 37,900 333 466 -768
2020-06-15 06:34:43 GMT 54.126427 -2.430079 37,975 333 466 -512
2020-06-15 06:34:40 GMT 54.121582 -2.425781 37,950 333 466 -448
2020-06-15 06:34:37 GMT 54.116695 -2.421435 37,950 333 466 -320
2020-06-15 06:34:34 GMT 54.109360 -2.414873 37,975 333 466 0
2020-06-15 06:34:31 GMT 54.103821 -2.410008 37,975 333 466 0
2020-06-15 06:34:28 GMT 54.098282 -2.405064 37,975 333 466 0
2020-06-15 06:34:25 GMT 54.092628 -2.400109 37,975 333 466 -64
2020-06-15 06:34:22 GMT 54.087021 -2.395098 37,975 333 466 -64
2020-06-15 06:34:19 GMT 54.081070 -2.389840 37,975 333 466 -64
2020-06-15 06:34:16 GMT 54.075165 -2.384583 37,975 333 466 -64
2020-06-15 06:34:13 GMT 54.069538 -2.379590 38,050 333 466 -128
2020-06-15 06:34:10 GMT 54.063858 -2.374616 38,000 333 466 -64
2020-06-15 06:34:07 GMT 54.058041 -2.369492 38,000 333 466 -128
2020-06-15 06:34:04 GMT 54.052128 -2.364242 38,000 333 466 -128
2020-06-15 06:34:01 GMT 54.046589 -2.359314 38,025 333 466 -128
2020-06-15 06:33:58 GMT 54.039143 -2.352771 38,025 333 466 -128
2020-06-15 06:33:54 GMT 54.031460 -2.346066 38,025 333 466 -128
2020-06-15 06:33:51 GMT 54.025635 -2.340873 38,050 333 466 -128
2020-06-15 06:33:48 GMT 54.021545 -2.337261 38,050 333 466 -64
2020-06-15 06:33:45 GMT 54.015820 -2.332171 38,050 333 466 -64
2020-06-15 06:33:42 GMT 54.009300 -2.326517 38,050 333 466 -64
2020-06-15 06:33:39 GMT 54.003948 -2.321750 38,050 333 467 -64
2020-06-15 06:33:36 GMT 53.996498 -2.315207 38,050 333 467 -64
2020-06-15 06:33:33 GMT 53.992401 -2.311523 38,050 333 467 -64
2020-06-15 06:33:30 GMT 53.987961 -2.307678 38,050 333 467 -64
2020-06-15 06:33:27 GMT 53.983093 -2.303413 38,050 333 468 -64
2020-06-15 06:33:24 GMT 53.975143 -2.296456 38,075 333 468 -64
2020-06-15 06:33:21 GMT 53.970520 -2.292376 38,075 333 468 -64
2020-06-15 06:33:18 GMT 53.956604 -2.280229 38,075 333 468 -64
2020-06-15 06:33:15 GMT 53.956604 -2.280229 38,075 333 468 0
2020-06-15 06:33:12 GMT 53.952602 -2.276674 38,075 333 468 0
2020-06-15 06:33:09 GMT 53.946350 -2.271266 38,075 333 469 64
2020-06-15 06:33:06 GMT 53.940948 -2.266558 38,075 333 469 64
2020-06-15 06:33:03 GMT 53.934998 -2.261300 38,075 333 470 0
2020-06-15 06:33:00 GMT 53.929138 -2.256236 38,075 333 470 0
2020-06-15 06:32:57 GMT 53.923050 -2.250942 38,075 333 470 64
2020-06-15 06:32:54 GMT 53.918526 -2.247027 38,050 333 470 0
2020-06-15 06:32:51 GMT 53.906067 -2.236110 38,050 333 470 0
2020-06-15 06:32:48 GMT 53.906067 -2.236110 38,050 333 470 0
2020-06-15 06:32:45 GMT 53.901260 -2.231951 38,050 333 471 0
2020-06-15 06:32:42 GMT 53.894897 -2.226379 38,050 333 471 0
2020-06-15 06:32:39 GMT 53.888966 -2.221258 38,050 333 472 0
2020-06-15 06:32:36 GMT 53.883003 -2.216007 38,050 333 472 0
2020-06-15 06:32:33 GMT 53.877373 -2.211160 38,050 333 472 0
2020-06-15 06:32:30 GMT 53.873322 -2.207606 38,050 333 472 64
2020-06-15 06:32:27 GMT 53.860149 -2.196135 38,050 333 472 64
2020-06-15 06:32:24 GMT 53.860149 -2.196135 38,050 333 472 64
2020-06-15 06:32:21 GMT 53.854797 -2.191459 38,050 333 472 64
2020-06-15 06:32:18 GMT 53.848984 -2.186436 38,050 333 472 64
2020-06-15 06:32:15 GMT 53.843437 -2.181594 38,025 333 473 128
2020-06-15 06:32:12 GMT 53.837242 -2.176182 38,025 333 473 64
2020-06-15 06:32:09 GMT 53.829391 -2.169329 38,025 333 474 128
2020-06-15 06:32:06 GMT 53.825500 -2.165955 38,025 333 474 128
2020-06-15 06:32:03 GMT 53.818623 -2.159944 38,025 333 474 128
2020-06-15 06:32:00 GMT 53.813873 -2.155753 38,025 333 474 64
2020-06-15 06:31:57 GMT 53.807831 -2.150495 38,025 333 474 0
2020-06-15 06:31:54 GMT 53.800327 -2.143950 38,025 333 474 0
2020-06-15 06:31:51 GMT 53.796570 -2.140686 38,025 333 473 0
2020-06-15 06:31:48 GMT 53.790833 -2.135629 38,000 333 471 0
2020-06-15 06:31:45 GMT 53.784897 -2.130484 38,025 333 473 0
2020-06-15 06:31:42 GMT 53.773041 -2.120204 38,025 333 473 0
2020-06-15 06:31:39 GMT 53.773041 -2.120204 38,025 333 473 0
2020-06-15 06:31:36 GMT 53.765259 -2.113456 38,000 333 473 64
2020-06-15 06:31:33 GMT 53.758942 -2.108002 38,000 333 473 64
2020-06-15 06:31:30 GMT 53.755077 -2.104609 38,025 333 473 0
2020-06-15 06:31:27 GMT 53.749329 -2.099644 38,000 333 473 -64
2020-06-15 06:31:24 GMT 53.743515 -2.094622 38,025 333 473 0
2020-06-15 06:31:21 GMT 53.737762 -2.089664 38,025 333 473 -64
2020-06-15 06:31:18 GMT 53.731842 -2.084499 38,025 333 473 0
2020-06-15 06:31:15 GMT 53.726028 -2.079476 38,025 333 473 0
2020-06-15 06:31:12 GMT 53.719986 -2.074219 38,025 333 473 0
2020-06-15 06:31:09 GMT 53.712715 -2.067934 38,025 333 473 -64
2020-06-15 06:31:06 GMT 53.706985 -2.062997 38,025 333 472 -64
2020-06-15 06:31:03 GMT 53.700474 -2.057352 38,025 333 472 0
2020-06-15 06:31:00 GMT 53.696915 -2.054286 38,025 333 472 0
2020-06-15 06:30:57 GMT 53.691101 -2.049264 38,025 333 472 0
2020-06-15 06:30:54 GMT 53.686134 -2.044911 38,025 333 472 0
2020-06-15 06:30:51 GMT 53.679199 -2.038933 38,025 333 472 0
2020-06-15 06:30:48 GMT 53.671612 -2.032390 38,000 333 472 64
2020-06-15 06:30:45 GMT 53.666210 -2.027705 38,025 333 472 64
2020-06-15 06:30:42 GMT 53.662033 -2.024074 38,025 333 472 0
2020-06-15 06:30:39 GMT 53.655365 -2.018253 38,025 334 467 -64
2020-06-15 06:30:36 GMT 53.648895 -2.012695 38,025 333 471 0
2020-06-15 06:30:33 GMT 53.645004 -2.009321 38,025 333 471 64
2020-06-15 06:30:30 GMT 53.639908 -2.004843 38,025 333 471 64
2020-06-15 06:30:27 GMT 53.633301 -1.999189 38,000 333 471 64
2020-06-15 06:30:24 GMT 53.627525 -1.994180 38,000 333 471 64
2020-06-15 06:30:21 GMT 53.619801 -1.987475 38,000 333 471 0
2020-06-15 06:30:18 GMT 53.615067 -1.983346 38,000 333 470 0
2020-06-15 06:30:15 GMT 53.608578 -1.977781 38,000 333 470 64
2020-06-15 06:30:12 GMT 53.604900 -1.974550 38,000 333 470 0
2020-06-15 06:30:09 GMT 53.599083 -1.969542 38,000 333 470 0
2020-06-15 06:30:06 GMT 53.587418 -1.959490 38,000 333 470 0
2020-06-15 06:30:03 GMT 53.587418 -1.959490 38,000 333 470 0
2020-06-15 06:30:00 GMT 53.581532 -1.954435 38,000 333 470 0
2020-06-15 06:29:57 GMT 53.573807 -1.947731 38,000 333 470 64
2020-06-15 06:29:54 GMT 53.569290 -1.943795 38,000 333 470 0
2020-06-15 06:29:51 GMT 53.564255 -1.939479 38,000 333 470 64
2020-06-15 06:29:48 GMT 53.558304 -1.934378 38,000 333 469 64
2020-06-15 06:29:45 GMT 53.551712 -1.928728 38,000 333 469 64
2020-06-15 06:29:42 GMT 53.539398 -1.918056 38,000 333 469 0
2020-06-15 06:29:39 GMT 53.539398 -1.918056 37,975 333 469 64
2020-06-15 06:29:36 GMT 53.533401 -1.912955 37,975 333 469 0
2020-06-15 06:29:33 GMT 53.529373 -1.909502 38,000 333 469 0
2020-06-15 06:29:30 GMT 53.521637 -1.902832 38,000 333 469 64
2020-06-15 06:29:27 GMT 53.517014 -1.898908 38,000 333 469 0
2020-06-15 06:29:24 GMT 53.509689 -1.892630 37,975 333 469 64
2020-06-15 06:29:21 GMT 53.506027 -1.889491 37,975 333 469 64
2020-06-15 06:29:18 GMT 53.500076 -1.884391 37,975 333 469 0
2020-06-15 06:29:15 GMT 53.492851 -1.878177 37,975 333 468 -64
2020-06-15 06:29:12 GMT 53.488724 -1.874660 37,975 333 468 -64
2020-06-15 06:29:09 GMT 53.482655 -1.869453 37,975 333 468 -64
2020-06-15 06:29:06 GMT 53.475300 -1.863233 38,000 334 467 -64
2020-06-15 06:29:03 GMT 53.471481 -1.859921 38,000 334 467 -64
2020-06-15 06:29:00 GMT 53.463989 -1.853539 38,000 334 467 -64
2020-06-15 06:28:57 GMT 53.458099 -1.848528 38,000 334 467 0
2020-06-15 06:28:54 GMT 53.451885 -1.843199 38,000 333 466 0
2020-06-15 06:28:51 GMT 53.446484 -1.838594 38,000 333 466 0
2020-06-15 06:28:48 GMT 53.442352 -1.835109 38,000 334 466 0
2020-06-15 06:28:45 GMT 53.436710 -1.830274 38,000 334 466 0
2020-06-15 06:28:42 GMT 53.430752 -1.825185 38,000 334 466 0
2020-06-15 06:28:39 GMT 53.425163 -1.820499 38,000 334 466 64
2020-06-15 06:28:36 GMT 53.411709 -1.809109 38,000 334 466 0
2020-06-15 06:28:33 GMT 53.411709 -1.809109 38,000 334 466 0
2020-06-15 06:28:30 GMT 53.407894 -1.805878 38,000 334 465 0
2020-06-15 06:28:27 GMT 53.402538 -1.801273 38,000 334 466 0
2020-06-15 06:28:24 GMT 53.396767 -1.796426 38,000 334 466 64
2020-06-15 06:28:21 GMT 53.390808 -1.791337 38,000 334 466 64
2020-06-15 06:28:18 GMT 53.383125 -1.784874 38,000 334 466 0
2020-06-15 06:28:15 GMT 53.379227 -1.781590 37,975 334 466 0
2020-06-15 06:28:12 GMT 53.372002 -1.775504 37,975 334 466 0
2020-06-15 06:28:09 GMT 53.366180 -1.770525 38,000 334 466 0
2020-06-15 06:28:06 GMT 53.360874 -1.766052 37,975 334 466 0
2020-06-15 06:28:03 GMT 53.355148 -1.761205 37,975 334 466 0
2020-06-15 06:28:00 GMT 53.344582 -1.752319 38,000 334 465 0
2020-06-15 06:27:57 GMT 53.344582 -1.752319 38,000 334 465 0
2020-06-15 06:27:54 GMT 53.339539 -1.748003 38,000 334 465 0
2020-06-15 06:27:51 GMT 53.333588 -1.742981 38,000 334 465 0
2020-06-15 06:27:48 GMT 53.327171 -1.737536 38,000 334 465 0
2020-06-15 06:27:45 GMT 53.320469 -1.731801 38,000 333 466 0
2020-06-15 06:27:42 GMT 53.316559 -1.728463 38,000 333 466 -64
2020-06-15 06:27:39 GMT 53.309761 -1.722672 38,000 333 466 -64
2020-06-15 06:27:36 GMT 53.299610 -1.714029 38,000 333 466 -64
2020-06-15 06:27:33 GMT 53.299610 -1.714029 38,000 333 466 -64
2020-06-15 06:27:30 GMT 53.293030 -1.708452 38,025 334 465 -64
2020-06-15 06:27:27 GMT 53.286163 -1.702567 38,000 334 465 -64
2020-06-15 06:27:24 GMT 53.280293 -1.697630 38,000 334 465 -64
2020-06-15 06:27:21 GMT 53.274673 -1.692836 38,025 334 465 0
2020-06-15 06:27:18 GMT 53.269817 -1.688663 38,025 334 465 0
2020-06-15 06:27:15 GMT 53.263676 -1.683493 38,025 334 465 0
2020-06-15 06:27:12 GMT 53.254875 -1.676061 38,025 334 465 -64
2020-06-15 06:27:09 GMT 53.251244 -1.672992 38,025 334 465 -64
2020-06-15 06:27:06 GMT 53.245605 -1.668195 38,025 334 465 -64
2020-06-15 06:27:03 GMT 53.239792 -1.663298 38,025 334 465 -64
2020-06-15 06:27:00 GMT 53.235744 -1.659905 38,025 334 464 0
2020-06-15 06:26:57 GMT 53.228107 -1.653442 38,025 334 464 -64
2020-06-15 06:26:54 GMT 53.223038 -1.649205 38,025 334 465 0
2020-06-15 06:26:51 GMT 53.218048 -1.645046 38,025 334 465 0
2020-06-15 06:26:48 GMT 53.210953 -1.639082 38,000 334 468 64
2020-06-15 06:26:45 GMT 53.206924 -1.635629 38,025 334 465 0
2020-06-15 06:26:42 GMT 53.201569 -1.631156 38,025 334 465 0
2020-06-15 06:26:39 GMT 53.195755 -1.626219 38,025 334 465 0
2020-06-15 06:26:36 GMT 53.189796 -1.621210 38,050 334 466 0
2020-06-15 06:26:33 GMT 53.181927 -1.614586 38,025 334 466 0
2020-06-15 06:26:30 GMT 53.176666 -1.610125 38,025 334 466 0
2020-06-15 06:26:27 GMT 53.171780 -1.606023 38,050 334 466 0
2020-06-15 06:26:24 GMT 53.166870 -1.601885 38,050 334 466 0
2020-06-15 06:26:21 GMT 53.155746 -1.592547 38,050 334 466 64
2020-06-15 06:26:18 GMT 53.155746 -1.592547 38,025 334 466 64
2020-06-15 06:26:15 GMT 53.147690 -1.585720 38,025 334 468 0
2020-06-15 06:26:12 GMT 53.143944 -1.582597 38,025 334 467 64
2020-06-15 06:26:09 GMT 53.138355 -1.577911 38,025 334 467 64
2020-06-15 06:26:06 GMT 53.132584 -1.572984 38,025 334 467 0
2020-06-15 06:26:03 GMT 53.125214 -1.566807 38,025 334 467 0
2020-06-15 06:26:00 GMT 53.117592 -1.560382 38,025 334 467 0
2020-06-15 06:25:57 GMT 53.114895 -1.558120 38,025 334 468 0
2020-06-15 06:25:54 GMT 53.106419 -1.550930 38,025 334 467 0
2020-06-15 06:25:51 GMT 53.102646 -1.547817 38,025 334 468 0
2020-06-15 06:25:48 GMT 53.096600 -1.542691 38,025 334 468 64
2020-06-15 06:25:45 GMT 53.090744 -1.537704 38,025 334 468 64
2020-06-15 06:25:42 GMT 53.084930 -1.532898 38,025 334 468 64
2020-06-15 06:25:39 GMT 53.074440 -1.524039 38,025 334 468 0
2020-06-15 06:25:36 GMT 53.074440 -1.524039 38,025 334 468 0
2020-06-15 06:25:33 GMT 53.067505 -1.518232 38,025 334 468 0
2020-06-15 06:25:30 GMT 53.061871 -1.513524 38,025 334 468 0
2020-06-15 06:25:27 GMT 53.057190 -1.509628 38,025 334 468 0
2020-06-15 06:25:24 GMT 53.051376 -1.504745 38,025 334 468 128
2020-06-15 06:25:21 GMT 53.045670 -1.500026 38,000 334 468 128
2020-06-15 06:25:18 GMT 53.038548 -1.493984 38,000 334 468 64
2020-06-15 06:25:15 GMT 53.034805 -1.490860 38,000 334 468 64
2020-06-15 06:25:12 GMT 53.028118 -1.485273 38,000 334 469 -64
2020-06-15 06:25:09 GMT 53.020809 -1.479152 38,000 334 468 64
2020-06-15 06:25:06 GMT 53.015968 -1.475150 38,000 334 468 0
2020-06-15 06:25:03 GMT 53.009220 -1.469500 37,975 334 468 0
2020-06-15 06:25:00 GMT 53.003723 -1.464920 38,000 334 469 0
2020-06-15 06:24:57 GMT 52.999832 -1.461639 38,000 334 469 0
2020-06-15 06:24:54 GMT 52.991730 -1.454926 38,000 334 469 -64
2020-06-15 06:24:51 GMT 52.986221 -1.450274 38,000 334 468 0
2020-06-15 06:24:48 GMT 52.982071 -1.446838 38,000 334 468 0
2020-06-15 06:24:45 GMT 52.974865 -1.440778 38,000 334 468 0
2020-06-15 06:24:42 GMT 52.969162 -1.436081 38,000 334 468 0
2020-06-15 06:24:39 GMT 52.962799 -1.430740 38,000 334 468 0
2020-06-15 06:24:36 GMT 52.957169 -1.426086 38,000 334 468 0
2020-06-15 06:24:33 GMT 52.953449 -1.422965 38,000 334 468 0
2020-06-15 06:24:30 GMT 52.947445 -1.417943 38,000 334 468 0
2020-06-15 06:24:27 GMT 52.941486 -1.412999 38,000 334 468 -64
2020-06-15 06:24:24 GMT 52.933945 -1.406721 38,000 334 468 -64
2020-06-15 06:24:21 GMT 52.922352 -1.397069 38,000 334 468 -64
2020-06-15 06:24:18 GMT 52.922352 -1.397069 38,000 334 467 -64
2020-06-15 06:24:15 GMT 52.918808 -1.394119 38,025 334 467 -64
2020-06-15 06:24:12 GMT 52.911255 -1.387787 38,025 334 467 0
2020-06-15 06:24:09 GMT 52.905487 -1.382980 38,025 334 467 0
2020-06-15 06:24:06 GMT 52.899490 -1.378021 38,025 334 467 64
2020-06-15 06:24:03 GMT 52.893906 -1.373367 38,025 334 467 64
2020-06-15 06:24:00 GMT 52.888790 -1.369132 38,000 334 468 0
2020-06-15 06:23:57 GMT 52.883286 -1.364594 38,000 334 467 64
2020-06-15 06:23:54 GMT 52.876740 -1.359100 38,000 334 467 64
2020-06-15 06:23:51 GMT 52.871052 -1.354379 38,000 334 467 64
2020-06-15 06:23:48 GMT 52.866531 -1.350632 38,000 334 468 0
2020-06-15 06:23:45 GMT 52.858978 -1.344376 38,000 334 468 0
2020-06-15 06:23:42 GMT 52.853943 -1.340256 38,000 334 468 0
2020-06-15 06:23:39 GMT 52.847870 -1.335231 38,000 334 468 0
2020-06-15 06:23:36 GMT 52.841866 -1.330287 38,000 334 468 64
2020-06-15 06:23:33 GMT 52.838333 -1.327362 38,000 334 468 0
2020-06-15 06:23:30 GMT 52.831741 -1.321945 38,000 334 467 0
2020-06-15 06:23:27 GMT 52.825745 -1.317062 38,000 334 466 0
2020-06-15 06:23:24 GMT 52.818913 -1.311454 38,025 334 466 0
2020-06-15 06:23:21 GMT 52.812241 -1.306000 38,025 334 466 0
2020-06-15 06:23:18 GMT 52.807617 -1.302185 38,000 334 471 64
2020-06-15 06:23:15 GMT 52.801849 -1.297455 38,025 334 465 0
2020-06-15 06:23:12 GMT 52.795853 -1.292572 38,000 334 465 0
2020-06-15 06:23:09 GMT 52.789902 -1.287689 38,000 334 465 64
2020-06-15 06:23:06 GMT 52.782509 -1.281712 38,000 334 465 0
2020-06-15 06:23:03 GMT 52.778549 -1.278458 38,000 334 465 0
2020-06-15 06:23:00 GMT 52.772186 -1.273270 38,000 334 465 0
2020-06-15 06:22:57 GMT 52.760536 -1.263742 38,000 334 465 -64
2020-06-15 06:22:54 GMT 52.760536 -1.263742 38,025 334 465 -64
2020-06-15 06:22:51 GMT 52.755371 -1.259504 38,000 334 465 -64
2020-06-15 06:22:48 GMT 52.749413 -1.254639 38,025 334 465 -64
2020-06-15 06:22:45 GMT 52.743221 -1.249538 38,025 334 466 0
2020-06-15 06:22:42 GMT 52.737820 -1.245143 38,025 334 467 0
2020-06-15 06:22:39 GMT 52.726460 -1.235726 38,025 334 467 0
2020-06-15 06:22:36 GMT 52.726460 -1.235726 38,025 334 467 0
2020-06-15 06:22:33 GMT 52.720596 -1.230850 38,025 334 468 0
2020-06-15 06:22:30 GMT 52.716221 -1.227330 38,025 334 468 0
2020-06-15 06:22:27 GMT 52.708912 -1.221287 38,025 334 468 -64
2020-06-15 06:22:24 GMT 52.698994 -1.213126 38,025 334 469 0
2020-06-15 06:22:21 GMT 52.690849 -1.206456 38,025 334 470 0
2020-06-15 06:22:18 GMT 52.690849 -1.206456 38,025 334 470 64
2020-06-15 06:22:15 GMT 52.685532 -1.202011 38,000 334 471 64
2020-06-15 06:22:12 GMT 52.680794 -1.198059 38,000 334 471 64
2020-06-15 06:22:09 GMT 52.674973 -1.193272 38,000 334 471 128
2020-06-15 06:22:06 GMT 52.668045 -1.187515 38,000 334 472 128
2020-06-15 06:22:03 GMT 52.662498 -1.182914 37,975 334 472 128
2020-06-15 06:22:00 GMT 52.657425 -1.178755 37,950 334 472 448
2020-06-15 06:21:57 GMT 52.651604 -1.173889 37,975 334 471 768
2020-06-15 06:21:54 GMT 52.644882 -1.168289 37,950 334 472 704
2020-06-15 06:21:51 GMT 52.640762 -1.164932 37,925 334 472 768
2020-06-15 06:21:48 GMT 52.633495 -1.158901 37,875 334 471 704
2020-06-15 06:21:45 GMT 52.627533 -1.153946 37,850 334 470 640
2020-06-15 06:21:42 GMT 52.620163 -1.147919 37,800 334 469 704
2020-06-15 06:21:39 GMT 52.616413 -1.144775 37,725 334 468 1344
2020-06-15 06:21:36 GMT 52.608871 -1.138576 37,700 334 468 1152
2020-06-15 06:21:33 GMT 52.604691 -1.135178 37,650 334 468 1344
2020-06-15 06:21:30 GMT 52.597836 -1.129473 37,550 334 469 1664
2020-06-15 06:21:27 GMT 52.592995 -1.125549 37,500 334 469 1728
2020-06-15 06:21:24 GMT 52.585327 -1.119232 37,375 334 470 1728
2020-06-15 06:21:21 GMT 52.581360 -1.115976 37,250 334 470 1792
2020-06-15 06:21:18 GMT 52.576401 -1.111908 36,525 334 471 1216
2020-06-15 06:21:15 GMT 52.564041 -1.101772 37,075 334 471 1728
2020-06-15 06:21:12 GMT 52.564041 -1.101772 37,050 334 472 1664
2020-06-15 06:21:09 GMT 52.558273 -1.097031 37,000 334 473 1600
2020-06-15 06:21:06 GMT 52.552357 -1.092119 36,850 334 472 1344
2020-06-15 06:21:03 GMT 52.546417 -1.087189 36,800 334 472 1216
2020-06-15 06:21:00 GMT 52.540440 -1.082310 36,775 334 472 1216
2020-06-15 06:20:57 GMT 52.532665 -1.075875 36,700 334 472 1280
2020-06-15 06:20:54 GMT 52.528568 -1.072501 36,650 334 472 1280
2020-06-15 06:20:51 GMT 52.524399 -1.069107 36,575 334 472 1216
2020-06-15 06:20:48 GMT 52.517487 -1.063398 36,575 334 471 1216
2020-06-15 06:20:45 GMT 52.511765 -1.058731 36,450 334 470 1088
2020-06-15 06:20:42 GMT 52.506317 -1.054230 36,400 334 470 1280
2020-06-15 06:20:39 GMT 52.499241 -1.048410 36,325 334 470 1472
2020-06-15 06:20:36 GMT 52.494278 -1.044388 36,225 334 470 1728
2020-06-15 06:20:33 GMT 52.487370 -1.038679 36,200 334 470 1792
2020-06-15 06:20:30 GMT 52.482239 -1.034470 36,075 334 470 1792
2020-06-15 06:20:27 GMT 52.476288 -1.029654 35,950 334 471 1664
2020-06-15 06:20:24 GMT 52.471077 -1.025338 35,900 334 471 1536
2020-06-15 06:20:21 GMT 52.464233 -1.019767 35,800 334 471 1472
2020-06-15 06:20:18 GMT 52.459393 -1.015765 35,700 334 471 1344
2020-06-15 06:20:15 GMT 52.452438 -1.010132 35,575 334 469 832
2020-06-15 06:20:12 GMT 52.446442 -1.005249 35,625 334 470 1088
2020-06-15 06:20:09 GMT 52.440491 -1.000384 35,525 334 468 704
2020-06-15 06:20:06 GMT 52.435181 -0.996017 35,550 334 468 704
2020-06-15 06:20:03 GMT 52.430202 -0.991987 35,525 334 467 704
2020-06-15 06:20:00 GMT 52.423553 -0.986557 35,475 334 465 896
2020-06-15 06:19:57 GMT 52.418098 -0.982099 35,425 334 465 1024
2020-06-15 06:19:54 GMT 52.412327 -0.977391 35,325 334 465 1344
2020-06-15 06:19:51 GMT 52.406067 -0.972290 35,250 334 465 1472
2020-06-15 06:19:48 GMT 52.400711 -0.967941 35,200 334 465 1728
2020-06-15 06:19:45 GMT 52.394943 -0.963211 35,000 334 464 1856
2020-06-15 06:19:42 GMT 52.389095 -0.958400 35,025 334 464 1792
2020-06-15 06:19:39 GMT 52.381668 -0.952454 34,950 334 464 1728
2020-06-15 06:19:36 GMT 52.378006 -0.949478 34,800 334 464 1600
2020-06-15 06:19:33 GMT 52.372467 -0.944901 34,550 334 460 832
2020-06-15 06:19:30 GMT 52.364960 -0.938797 34,700 334 464 1216
2020-06-15 06:19:27 GMT 52.361115 -0.935669 34,675 334 463 1024
2020-06-15 06:19:24 GMT 52.355068 -0.930777 34,600 334 461 768
2020-06-15 06:19:21 GMT 52.349258 -0.926056 34,550 334 460 768
2020-06-15 06:19:18 GMT 52.343536 -0.921402 34,500 334 458 1024
2020-06-15 06:19:15 GMT 52.336029 -0.915318 34,475 334 458 1152
2020-06-15 06:19:12 GMT 52.330162 -0.910610 34,375 334 457 1472
2020-06-15 06:19:09 GMT 52.326389 -0.907471 34,350 334 457 1664
2020-06-15 06:19:06 GMT 52.313541 -0.897034 34,125 334 458 2240
2020-06-15 06:19:03 GMT 52.313541 -0.897034 34,050 334 458 2240
2020-06-15 06:19:00 GMT 52.309772 -0.893973 33,975 334 458 2176
2020-06-15 06:18:57 GMT 52.303986 -0.889206 33,900 334 459 1664
2020-06-15 06:18:54 GMT 52.297993 -0.884321 33,750 334 459 1984
2020-06-15 06:18:51 GMT 52.292404 -0.879822 33,750 334 459 1856
2020-06-15 06:18:48 GMT 52.280685 -0.870209 33,625 334 458 1600
2020-06-15 06:18:45 GMT 52.280685 -0.870209 33,525 334 457 1216
2020-06-15 06:18:42 GMT 52.275089 -0.865644 33,475 334 457 1024
2020-06-15 06:18:39 GMT 52.269226 -0.860936 33,425 334 454 896
2020-06-15 06:18:36 GMT 52.262924 -0.855789 33,400 334 453 896
2020-06-15 06:18:33 GMT 52.258144 -0.851911 33,375 334 453 960
2020-06-15 06:18:30 GMT 52.252213 -0.847168 33,300 334 450 1024
2020-06-15 06:18:27 GMT 52.246880 -0.842887 33,250 334 446 896
2020-06-15 06:18:24 GMT 52.239662 -0.837001 33,200 334 447 896
2020-06-15 06:18:21 GMT 52.234177 -0.832596 33,150 334 446 960
2020-06-15 06:18:18 GMT 52.229469 -0.828840 32,950 334 445 1280
2020-06-15 06:18:15 GMT 52.224380 -0.824738 33,075 334 445 1280
2020-06-15 06:18:12 GMT 52.217422 -0.819092 32,950 334 444 1600
2020-06-15 06:18:09 GMT 52.213455 -0.815892 32,925 334 443 1600
2020-06-15 06:18:06 GMT 52.208771 -0.812149 32,875 334 443 1664
2020-06-15 06:18:03 GMT 52.203213 -0.807652 32,700 334 442 1536
2020-06-15 06:18:00 GMT 52.197052 -0.802689 32,650 334 441 1536
2020-06-15 06:17:57 GMT 52.189957 -0.796890 32,525 334 440 2304
2020-06-15 06:17:54 GMT 52.186111 -0.793839 32,475 334 440 1920
2020-06-15 06:17:51 GMT 52.179749 -0.788651 32,425 334 440 2112
2020-06-15 06:17:48 GMT 52.173752 -0.783768 32,250 334 440 2368
2020-06-15 06:17:45 GMT 52.168159 -0.779323 32,075 334 441 2240
2020-06-15 06:17:42 GMT 52.163498 -0.775528 32,025 334 441 2112
2020-06-15 06:17:39 GMT 52.157135 -0.770416 31,925 334 440 1856
2020-06-15 06:17:36 GMT 52.153404 -0.767395 31,850 334 440 1728
2020-06-15 06:17:33 GMT 52.146561 -0.761871 31,800 334 440 1664
2020-06-15 06:17:30 GMT 52.140972 -0.757429 31,650 334 439 1344
2020-06-15 06:17:27 GMT 52.137527 -0.754604 31,600 334 437 1216
2020-06-15 06:17:24 GMT 52.130539 -0.749054 31,550 334 436 1216
2020-06-15 06:17:21 GMT 52.127007 -0.746207 31,500 334 435 1344
2020-06-15 06:17:18 GMT 52.119606 -0.740243 31,425 334 433 1600
2020-06-15 06:17:15 GMT 52.114067 -0.735770 31,300 334 433 1792
2020-06-15 06:17:12 GMT 52.108749 -0.731506 31,225 334 432 2112
2020-06-15 06:17:09 GMT 52.105083 -0.728629 31,125 334 433 2112
2020-06-15 06:17:06 GMT 52.099869 -0.724391 31,100 334 433 2176
2020-06-15 06:17:03 GMT 52.092373 -0.718349 30,875 334 432 2048
2020-06-15 06:17:00 GMT 52.088974 -0.715602 29,700 334 429 1664
2020-06-15 06:16:57 GMT 52.082794 -0.710602 30,675 334 432 2048
2020-06-15 06:16:54 GMT 52.078491 -0.707169 30,600 334 432 2112
2020-06-15 06:16:51 GMT 52.071350 -0.701447 30,525 334 432 2048
2020-06-15 06:16:48 GMT 52.067596 -0.698395 30,450 334 431 2048
2020-06-15 06:16:45 GMT 52.062160 -0.694022 30,275 334 430 1856
2020-06-15 06:16:42 GMT 52.056702 -0.689697 30,200 334 429 1792
2020-06-15 06:16:39 GMT 52.049561 -0.683975 30,100 334 429 1664
2020-06-15 06:16:36 GMT 52.045670 -0.680847 30,050 334 428 1600
2020-06-15 06:16:33 GMT 52.040359 -0.676575 29,975 334 427 1600
2020-06-15 06:16:30 GMT 52.033447 -0.671082 29,875 334 425 1664
2020-06-15 06:16:27 GMT 52.029297 -0.667733 29,825 334 425 1664
2020-06-15 06:16:24 GMT 52.019165 -0.659714 29,650 334 423 1728
2020-06-15 06:16:21 GMT 52.019165 -0.659714 29,575 334 422 1728
2020-06-15 06:16:18 GMT 52.014164 -0.655727 29,525 334 422 1728
2020-06-15 06:16:15 GMT 52.008205 -0.650940 29,400 334 419 1664
2020-06-15 06:16:12 GMT 52.002182 -0.646210 29,300 334 419 1664
2020-06-15 06:16:09 GMT 51.997467 -0.642471 29,300 334 419 1664
2020-06-15 06:16:06 GMT 51.992889 -0.638777 28,825 334 415 1792
2020-06-15 06:16:03 GMT 51.986206 -0.633469 29,075 334 415 1728
2020-06-15 06:16:00 GMT 51.982773 -0.630722 29,050 334 415 1792
2020-06-15 06:15:57 GMT 51.970367 -0.620804 28,925 334 415 2048
2020-06-15 06:15:54 GMT 51.970367 -0.620804 28,800 334 414 2112
2020-06-15 06:15:51 GMT 51.965656 -0.617039 28,250 334 412 2240
2020-06-15 06:15:48 GMT 51.962311 -0.614319 28,600 334 413 2176
2020-06-15 06:15:45 GMT 51.956951 -0.610055 28,525 334 412 2240
2020-06-15 06:15:42 GMT 51.951187 -0.605469 28,400 334 412 2240
2020-06-15 06:15:39 GMT 51.947037 -0.602129 28,250 334 411 2240
2020-06-15 06:15:36 GMT 51.939869 -0.596401 28,150 334 411 2240
2020-06-15 06:15:33 GMT 51.936539 -0.593719 28,075 334 411 2240
2020-06-15 06:15:30 GMT 51.930836 -0.589181 27,950 334 410 2112
2020-06-15 06:15:27 GMT 51.926422 -0.585709 27,875 334 410 2176
2020-06-15 06:15:24 GMT 51.921574 -0.581805 27,625 334 409 2112
2020-06-15 06:15:21 GMT 51.915615 -0.577096 27,600 334 408 2048
2020-06-15 06:15:18 GMT 51.910812 -0.573273 27,525 334 406 1984
2020-06-15 06:15:15 GMT 51.904953 -0.568621 27,475 334 406 1920
2020-06-15 06:15:12 GMT 51.901089 -0.565560 27,350 334 405 1920
2020-06-15 06:15:09 GMT 51.896439 -0.561829 27,150 334 404 1856
2020-06-15 06:15:06 GMT 51.891315 -0.557785 27,200 334 403 1856
2020-06-15 06:15:03 GMT 51.885544 -0.553176 27,025 334 401 1984
2020-06-15 06:15:00 GMT 51.879814 -0.548630 26,575 334 400 2048
2020-06-15 06:14:57 GMT 51.874741 -0.544640 26,825 334 399 2112
2020-06-15 06:14:54 GMT 51.869568 -0.540557 26,750 334 398 2112
2020-06-15 06:14:51 GMT 51.866177 -0.537872 26,675 334 398 2176
2020-06-15 06:14:48 GMT 51.859818 -0.532837 26,475 334 397 2432
2020-06-15 06:14:45 GMT 51.855148 -0.529125 26,350 334 397 2560
2020-06-15 06:14:42 GMT 51.849277 -0.524445 26,200 334 397 2176
2020-06-15 06:14:39 GMT 51.841690 -0.518494 26,150 334 396 2048
2020-06-15 06:14:36 GMT 51.841690 -0.518494 26,075 334 396 1920
2020-06-15 06:14:33 GMT 51.831680 -0.510559 25,875 334 396 1728
2020-06-15 06:14:30 GMT 51.831680 -0.510559 25,875 334 396 1600
2020-06-15 06:14:27 GMT 51.826492 -0.506485 25,825 335 397 1408
2020-06-15 06:14:24 GMT 51.821732 -0.502699 25,750 335 397 1344
2020-06-15 06:14:21 GMT 51.815247 -0.497589 25,625 335 397 1792
2020-06-15 06:14:18 GMT 51.811943 -0.494995 25,575 334 396 1920
2020-06-15 06:14:15 GMT 51.805004 -0.489578 25,375 335 395 2176
2020-06-15 06:14:12 GMT 51.801888 -0.487137 25,350 335 394 2496
2020-06-15 06:14:09 GMT 51.795410 -0.481988 25,250 335 394 2624
2020-06-15 06:14:06 GMT 51.792480 -0.479687 25,175 335 394 2688
2020-06-15 06:14:03 GMT 51.785828 -0.474472 25,000 334 394 2688
2020-06-15 06:14:00 GMT 51.782242 -0.471649 24,850 334 394 2752
2020-06-15 06:13:57 GMT 51.775726 -0.466537 24,625 334 394 2944
2020-06-15 06:13:54 GMT 51.772522 -0.463950 24,475 334 394 3136
2020-06-15 06:13:51 GMT 51.767441 -0.460015 24,200 334 395 3200
2020-06-15 06:13:48 GMT 51.761536 -0.455339 24,225 334 395 3200
2020-06-15 06:13:45 GMT 51.757381 -0.452042 22,600 334 394 2496
2020-06-15 06:13:42 GMT 51.752884 -0.448509 23,975 334 395 3008
2020-06-15 06:13:39 GMT 51.746155 -0.443239 23,725 334 394 2560
2020-06-15 06:13:36 GMT 51.743092 -0.440826 22,600 334 394 2496
2020-06-15 06:13:33 GMT 51.738342 -0.437088 23,550 334 393 2432
2020-06-15 06:13:30 GMT 51.731827 -0.431900 23,400 334 393 2496
2020-06-15 06:13:27 GMT 51.726799 -0.427933 23,325 334 391 2560
2020-06-15 06:13:24 GMT 51.722809 -0.424829 23,150 334 390 2752
2020-06-15 06:13:21 GMT 51.718735 -0.421637 22,950 334 391 2752
2020-06-15 06:13:18 GMT 51.713158 -0.417175 22,875 334 390 2752
2020-06-15 06:13:15 GMT 51.707664 -0.412827 22,625 334 389 2688
2020-06-15 06:13:12 GMT 51.702896 -0.409018 22,600 334 389 2688
2020-06-15 06:13:09 GMT 51.698261 -0.405350 22,500 334 389 2688
2020-06-15 06:13:06 GMT 51.692024 -0.400391 22,325 334 388 2752
2020-06-15 06:13:03 GMT 51.689529 -0.398403 22,250 334 387 2880
2020-06-15 06:13:00 GMT 51.683578 -0.393652 21,975 334 387 3008
2020-06-15 06:12:57 GMT 51.678635 -0.389643 21,825 334 388 3072
2020-06-15 06:12:54 GMT 51.674847 -0.386581 21,750 334 387 2688
2020-06-15 06:12:51 GMT 51.669342 -0.382146 21,625 334 388 3136
2020-06-15 06:12:48 GMT 51.665257 -0.378876 21,425 334 388 3008
2020-06-15 06:12:45 GMT 51.659546 -0.374277 21,275 334 387 2752
2020-06-15 06:12:42 GMT 51.654827 -0.370483 21,150 334 386 2432
2020-06-15 06:12:39 GMT 51.650940 -0.367300 21,000 335 377 1792
2020-06-15 06:12:36 GMT 51.645424 -0.362854 20,950 334 381 1600
2020-06-15 06:12:33 GMT 51.642197 -0.360248 20,875 334 381 1600
2020-06-15 06:12:30 GMT 51.635651 -0.355072 20,775 335 378 1600
2020-06-15 06:12:27 GMT 51.630901 -0.351334 20,725 335 377 1792
2020-06-15 06:12:24 GMT 51.627869 -0.349039 20,650 336 375 2048
2020-06-15 06:12:21 GMT 51.621078 -0.344467 20,500 341 374 2240
2020-06-15 06:12:18 GMT 51.616192 -0.341873 20,350 346 372 2432
2020-06-15 06:12:15 GMT 51.611115 -0.339685 20,175 350 369 2816
2020-06-15 06:12:12 GMT 51.606628 -0.338201 20,075 353 368 3072
2020-06-15 06:12:09 GMT 51.601410 -0.337013 19,800 356 367 3328
2020-06-15 06:12:06 GMT 51.595963 -0.336196 19,725 357 367 3584
2020-06-15 06:12:03 GMT 51.591248 -0.335825 19,625 358 367 3776
2020-06-15 06:11:59 GMT 51.584721 -0.335312 18,900 358 371 3840
2020-06-15 06:11:56 GMT 51.579601 -0.334854 19,100 358 370 4032
2020-06-15 06:11:53 GMT 51.574081 -0.334489 18,975 358 370 3904
2020-06-15 06:11:50 GMT 51.570465 -0.334266 18,650 358 371 3584
2020-06-15 06:11:47 GMT 51.563866 -0.333862 18,600 358 371 3456
2020-06-15 06:11:44 GMT 51.559444 -0.333557 18,200 358 371 3136
2020-06-15 06:11:41 GMT 51.554214 -0.333227 18,175 358 370 3072
2020-06-15 06:11:38 GMT 51.549728 -0.332930 18,075 358 370 3072
2020-06-15 06:11:35 GMT 51.545013 -0.332642 17,900 358 370 3200
2020-06-15 06:11:32 GMT 51.539055 -0.332260 17,775 358 370 3264
2020-06-15 06:11:29 GMT 51.534714 -0.331965 17,650 358 369 3072
2020-06-15 06:11:26 GMT 51.523972 -0.331345 17,325 359 368 3072
2020-06-15 06:11:23 GMT 51.523972 -0.331345 17,225 359 368 3200
2020-06-15 06:11:20 GMT 51.517593 -0.331000 17,125 358 367 3328
2020-06-15 06:11:17 GMT 51.507675 -0.330429 16,900 358 367 3328
2020-06-15 06:11:14 GMT 51.507675 -0.330429 16,800 358 367 3264
2020-06-15 06:11:11 GMT 51.502556 -0.330124 16,675 358 367 3264
2020-06-15 06:11:08 GMT 51.497669 -0.329819 16,475 359 366 3328
2020-06-15 06:11:05 GMT 51.493515 -0.329590 16,350 359 366 3456
2020-06-15 06:11:02 GMT 51.487892 -0.329361 16,075 359 365 3776
2020-06-15 06:10:59 GMT 51.482895 -0.329070 15,875 359 366 4032
2020-06-15 06:10:56 GMT 51.477997 -0.328848 15,750 359 366 4096
2020-06-15 06:10:53 GMT 51.473419 -0.328625 14,775 359 368 3648
2020-06-15 06:10:50 GMT 51.464172 -0.328254 15,325 359 368 3904
2020-06-15 06:10:47 GMT 51.464172 -0.328254 15,125 359 368 3840
2020-06-15 06:10:44 GMT 51.457493 -0.327911 15,075 359 368 3712
2020-06-15 06:10:41 GMT 51.452271 -0.327660 14,700 359 368 3584
2020-06-15 06:10:38 GMT 51.447113 -0.327454 14,575 359 367 3584
2020-06-15 06:10:35 GMT 51.443619 -0.327289 14,400 359 367 3520
2020-06-15 06:10:32 GMT 51.437103 -0.326996 14,175 359 366 3456
2020-06-15 06:10:29 GMT 51.432083 -0.326695 14,125 359 366 3456
2020-06-15 06:10:26 GMT 51.426178 -0.326472 13,850 359 366 3456
2020-06-15 06:10:23 GMT 51.422607 -0.326249 13,650 359 364 3456
2020-06-15 06:10:20 GMT 51.415783 -0.325928 13,500 359 364 3520
2020-06-15 06:10:17 GMT 51.413456 -0.325851 13,425 359 364 3584
2020-06-15 06:10:14 GMT 51.406193 -0.325546 13,100 359 363 3648
2020-06-15 06:10:11 GMT 51.402004 -0.325317 13,075 359 363 3648
2020-06-15 06:10:08 GMT 51.396137 -0.325089 12,800 359 362 3456
2020-06-15 06:10:05 GMT 51.392853 -0.324913 12,525 359 361 3072
2020-06-15 06:10:02 GMT 51.387943 -0.324707 12,400 359 359 2752
2020-06-15 06:09:59 GMT 51.381939 -0.324402 12,275 359 354 2304
2020-06-15 06:09:56 GMT 51.377144 -0.324249 12,225 359 356 2432
2020-06-15 06:09:53 GMT 51.367599 -0.323792 12,100 359 352 2112
2020-06-15 06:09:50 GMT 51.367599 -0.323792 11,975 359 350 1984
2020-06-15 06:09:47 GMT 51.362640 -0.323651 11,950 359 348 1792
2020-06-15 06:09:44 GMT 51.353531 -0.323280 11,600 359 332 1408
2020-06-15 06:09:41 GMT 51.353531 -0.323280 11,725 359 336 1280
2020-06-15 06:09:38 GMT 51.347958 -0.323105 11,675 359 329 1472
2020-06-15 06:09:35 GMT 51.343277 -0.322983 11,625 359 330 1408
2020-06-15 06:09:32 GMT 51.339390 -0.322800 11,525 359 324 1536
2020-06-15 06:09:29 GMT 51.334808 -0.322612 11,475 359 323 1536
2020-06-15 06:09:26 GMT 51.329384 -0.322418 11,400 359 315 1536
2020-06-15 06:09:23 GMT 51.324680 -0.322189 11,350 359 312 1600
2020-06-15 06:09:20 GMT 51.320351 -0.322037 11,300 359 309 1600
2020-06-15 06:09:17 GMT 51.316452 -0.321870 11,125 359 300 1664
2020-06-15 06:09:14 GMT 51.312202 -0.321655 11,075 359 296 1728
2020-06-15 06:09:11 GMT 51.308666 -0.321503 11,025 359 293 1728
2020-06-15 06:09:08 GMT 51.304710 -0.321350 10,900 359 287 1792
2020-06-15 06:09:05 GMT 51.300613 -0.321121 10,850 359 284 1792
2020-06-15 06:09:02 GMT 51.297363 -0.320979 10,775 359 281 1792
2020-06-15 06:08:59 GMT 51.292419 -0.320816 10,500 0 260 3328
2020-06-15 06:08:56 GMT 51.288742 -0.320663 10,550 359 269 2240
2020-06-15 06:08:53 GMT 51.285110 -0.320511 10,375 0 265 2688
2020-06-15 06:08:50 GMT 51.280380 -0.320385 10,250 0 263 2880
2020-06-15 06:08:47 GMT 51.277817 -0.320311 10,150 0 261 3136
2020-06-15 06:08:44 GMT 51.270996 -0.320237 9,975 0 259 3584
2020-06-15 06:08:41 GMT 51.270996 -0.320237 9,850 0 258 3840
2020-06-15 06:08:38 GMT 51.266327 -0.320237 9,550 0 257 4224
2020-06-15 06:08:35 GMT 51.263351 -0.320162 9,300 0 258 4736
2020-06-15 06:08:32 GMT 51.259689 -0.320162 9,125 0 259 4928
2020-06-15 06:08:29 GMT 51.256153 -0.320129 8,950 0 260 5056
2020-06-15 06:08:26 GMT 51.251453 -0.320053 8,525 0 263 5376
2020-06-15 06:08:23 GMT 51.249115 -0.320014 8,350 0 264 5440
2020-06-15 06:08:20 GMT 51.245407 -0.319940 8,175 0 266 5440
2020-06-15 06:08:17 GMT 51.241608 -0.319940 7,675 0 271 5440
2020-06-15 06:08:14 GMT 51.237717 -0.319865 7,525 0 272 5440
2020-06-15 06:08:11 GMT 51.234650 -0.319901 7,375 0 274 5504
2020-06-15 06:08:08 GMT 51.230301 -0.319865 6,975 0 277 5440
2020-06-15 06:08:05 GMT 51.226822 -0.319865 6,775 0 278 5312
2020-06-15 06:08:02 GMT 51.223618 -0.319940 6,525 1 279 5120
2020-06-15 06:07:59 GMT 51.219635 -0.320162 6,125 5 280 4224
2020-06-15 06:07:56 GMT 51.214771 -0.320511 6,000 6 280 4096
2020-06-15 06:07:53 GMT 51.211304 -0.321053 5,850 11 278 3392
2020-06-15 06:07:50 GMT 51.207928 -0.321884 5,625 12 277 3264
2020-06-15 06:07:47 GMT 51.203133 -0.323410 5,500 14 274 3008
2020-06-15 06:07:44 GMT 51.195965 -0.326538 5,250 17 267 2624
2020-06-15 06:07:41 GMT 51.195965 -0.326538 5,150 17 265 2560
2020-06-15 06:07:38 GMT 51.192947 -0.328031 5,075 18 262 2560
2020-06-15 06:07:35 GMT 51.189102 -0.329961 4,900 18 256 2624
2020-06-15 06:07:29 GMT 51.182465 -0.333598 4,725 17 251 2624
2020-06-15 06:07:26 GMT 51.178555 -0.335541 4,550 15 246 2944
2020-06-15 06:07:23 GMT 51.176365 -0.336609 4,450 13 244 3136
2020-06-15 06:07:20 GMT 51.172081 -0.338211 4,250 5 241 2304
2020-06-15 06:07:17 GMT 51.168274 -0.338943 4,075 357 240 1728
2020-06-15 06:07:13 GMT 51.164913 -0.338821 4,075 353 239 1408
2020-06-15 06:07:10 GMT 51.161774 -0.338127 4,000 343 240 768
2020-06-15 06:07:07 GMT 51.158112 -0.336716 3,975 341 241 640
2020-06-15 06:07:04 GMT 51.154762 -0.334702 3,925 332 241 192
2020-06-15 06:07:01 GMT 51.152847 -0.333153 3,925 325 240 192
2020-06-15 06:06:58 GMT 51.149139 -0.329516 3,900 321 237 256
2020-06-15 06:06:55 GMT 51.146576 -0.326175 3,875 311 236 512
2020-06-15 06:06:52 GMT 51.144665 -0.323181 3,875 309 236 576
2020-06-15 06:06:49 GMT 51.141586 -0.317342 3,850 305 239 704
2020-06-15 06:06:46 GMT 51.139915 -0.313110 3,775 298 238 1024
2020-06-15 06:06:43 GMT 51.138657 -0.309219 3,725 288 237 1408
2020-06-15 06:06:40 GMT 51.137604 -0.305316 3,650 286 236 1472
2020-06-15 06:06:37 GMT 51.136368 -0.298264 3,550 278 236 1664
2020-06-15 06:06:34 GMT 51.135864 -0.292919 3,475 274 233 1792
2020-06-15 06:06:31 GMT 51.135723 -0.289688 3,450 270 230 1984
2020-06-15 06:06:28 GMT 51.136051 -0.279770 3,000 258 213 2432
2020-06-15 06:06:25 GMT 51.136051 -0.279770 3,225 261 219 2560
2020-06-15 06:06:22 GMT 51.136642 -0.274955 3,050 258 213 2432
2020-06-15 06:06:19 GMT 51.137329 -0.270056 2,900 258 208 2368
2020-06-15 06:06:16 GMT 51.137959 -0.265503 0 258 205 2368
2020-06-15 06:06:13 GMT 51.138470 -0.261612 0 258 199 2304
2020-06-15 06:06:10 GMT 51.139114 -0.257214 0 258 186 1472
2020-06-15 06:06:07 GMT 51.139709 -0.252834 0 258 189 1536
2020-06-15 06:06:04 GMT 51.140808 -0.244743 0 258 178 2176
2020-06-15 06:06:01 GMT 51.140808 -0.244743 0 258 178 2176
2020-06-15 06:05:58 GMT 51.141357 -0.240586 0 258 174 2304
2020-06-15 06:05:55 GMT 51.142288 -0.233765 0 258 169 2496
2020-06-15 06:05:52 GMT 51.142288 -0.233765 0 258 167 2560
2020-06-15 06:05:49 GMT 51.142754 -0.230179 0 259 164 2496
2020-06-15 06:05:46 GMT 51.143314 -0.225983 0 259 163 2496
2020-06-15 06:05:43 GMT 51.143730 -0.222931 0 258 158 2368
2020-06-15 06:05:40 GMT 51.144196 -0.219652 0 258 156 2432
2020-06-15 06:05:37 GMT 51.144569 -0.216599 0 259 154 2944
2020-06-15 06:05:34 GMT 51.145020 -0.213120 0 258 154 3392
2020-06-15 06:05:31 GMT 51.145569 -0.209111 0 258 155 3456
2020-06-15 06:05:27 GMT 51.146072 -0.205474 0 258 156 3392
2020-06-15 06:05:24 GMT 51.146526 -0.202255 0 258 157 3392
2020-06-15 06:05:15 GMT 51.147949 -0.191741 0 258 161 2432
2020-06-15 06:05:06 GMT 51.149368 -0.181571 0 258 127 64
2020-06-15 06:04:53 GMT 51.150707 -0.171736 0 258 54
2020-06-15 06:04:45 GMT 51.151028 -0.169373 0 255 12
2020-06-15 06:04:16 GMT 51.151379 -0.168018 0 199 9
2020-06-15 06:04:04 GMT 51.151844 -0.167923 0 165 8
2020-06-15 06:03:56 GMT 51.152103 -0.168024 0 165 6
2020-06-15 06:03:45 GMT 51.152367 -0.168117 0 165 6
2020-06-15 06:03:35 GMT 51.152645 -0.168209 0 149 7
2020-06-15 06:03:25 GMT 51.152847 -0.168395 0 112 4
2020-06-15 06:03:14 GMT 51.152939 -0.168766 0 84 9
2020-06-15 06:03:05 GMT 51.152870 -0.169360 0 75 12
2020-06-15 06:02:55 GMT 51.152740 -0.170269 0 78 13
2020-06-15 06:02:45 GMT 51.152622 -0.171165 0 75 12
2020-06-15 06:02:35 GMT 51.152504 -0.171995 0 75 11
2020-06-15 06:02:21 GMT 51.152424 -0.172979 0 123 9
2020-06-15 06:02:12 GMT 51.152657 -0.173378 0 160 8
2020-06-15 06:02:04 GMT 51.152927 -0.173492 0 168 8
2020-06-15 06:01:54 GMT 51.153275 -0.173607 0 165 9
2020-06-15 06:01:36 GMT 51.153980 -0.173851 0 168 9
2020-06-15 06:01:16 GMT 51.154938 -0.174198 0 168 11
2020-06-15 06:01:13 GMT 51.155090 -0.174241 0 168 11
2020-06-15 06:00:58 GMT 51.155811 -0.174503 0 168 10
2020-06-15 06:00:52 GMT 51.156044 -0.174580 0 168 10
2020-06-15 06:00:41 GMT 51.156616 -0.174789 0 165 12
2020-06-15 06:00:31 GMT 51.157047 -0.174928 0 165 9
2020-06-15 06:00:22 GMT 51.157394 -0.175076 0 126 9
2020-06-15 06:00:12 GMT 51.157536 -0.175591 0 78 10
2020-06-15 06:00:00 GMT 51.157547 -0.176582 0 78 14
2020-06-15 05:59:49 GMT 51.157269 -0.177574 0 78 12
2020-06-15 05:59:41 GMT 51.157173 -0.178242 0 78 12
2020-06-15 05:59:31 GMT 51.157070 -0.179043 0 75 10
2020-06-15 05:59:21 GMT 51.156967 -0.179678 0 95 9
2020-06-15 05:59:11 GMT 51.157116 -0.180264 0 157 8
2020-06-15 05:59:01 GMT 51.157494 -0.180458 0 165 9
2020-06-15 05:58:50 GMT 51.157917 -0.180606 0 168 9
2020-06-15 05:58:39 GMT 51.158363 -0.180755 0 168 8
2020-06-15 05:58:30 GMT 51.158638 -0.180848 0 165 7
2020-06-15 05:58:20 GMT 51.158882 -0.180950 0 171 6
2020-06-15 05:58:10 GMT 51.159176 -0.181015 0 185 6
2020-06-15 05:58:00 GMT 51.159416 -0.180940 0 165 5
2020-06-15 05:57:50 GMT 51.159611 -0.180977 0 109 4
2020-06-15 05:57:41 GMT 51.159679 -0.181089 0 81 0
2020-06-15 05:57:36 GMT 51.159676 -0.181122 0 81 0
2020-06-15 05:56:26 GMT 51.159676 -0.181122 0 81 0
2020-06-15 05:55:27 GMT 51.159679 -0.181107 0 81 0
2020-06-15 05:55:17 GMT 51.159679 -0.181126 0 81 2
2020-06-15 05:55:11 GMT 51.159687 -0.181046 0 78 3
2020-06-15 05:55:07 GMT 51.159698 -0.180988 0 78 3
2020-06-15 05:55:00 GMT 51.159710 -0.180874 0 75 3
2020-06-15 05:54:57 GMT 51.159721 -0.180798 0 75 3
2020-06-15 05:54:47 GMT 51.159748 -0.180588 0 78 4
2020-06-15 05:54:36 GMT 51.159779 -0.180340 0 78 4
2020-06-15 05:54:26 GMT 51.159817 -0.180092 0 78 3
2020-06-15 05:54:16 GMT 51.159851 -0.179882 0 78 3
2020-06-15 05:54:06 GMT 51.159874 -0.179691 0 78 2

Making use of Plane Finder data

You are free to use the raw flight data, aircraft information and images provided in this report for your own purposes provided the data is correctly attributed to Plane Finder. We ask that you please credit Plane Finder and link to planefinder.net in close proximity to the content.

Optionally one of the following logos (no smaller then 150x24px) can be used and must link to planefinder.net

Embedding the Plane Finder map

You are welcome to embed the Plane Finder playback map on your website to offer visitors a more interactive experience. We suggest using the following HTML code:

<iframe src="//planefinder.net/data/report/first-easyjet-flight-in-11-weeks/map" width="800" height="600" seamless="seamless"></iframe>

Where our data comes from

Plane Finder has a global network of data feeds and antenna radars that receive data broadcast directly from aircraft. The primary technologies used are ADS-B and MLAT. We also show feeds from the FAA and a FLARM glider feed.

Click here to find out more about the Plane Finder network.

How we collect our data